Terminal Aerodrome Forecast
Issued by NWS

Home | Current Version | Previous Version | Graphics & Text | Print | Product List | Glossary On
Versions: 1 2 3 4 5 6 7 8 9 10 11 12 13 14 15 16 17
000
FTUS41 KCLE 241300 AAA
TAFFDY
TAF AMD
KFDY 241340Z 2414/2512 21020G30KT P6SM VCSH SCT020 OVC035
      TEMPO 2414/2416 VRB30G45KT 5SM -TSRA BR OVC025CB
     FM241600 22028G40KT P6SM OVC020
      TEMPO 2416/2418 3SM -SHRA
     FM241800 23030G40KT P6SM BKN020
      TEMPO 2418/2420 24020G45KT
     FM242300 24022G30KT P6SM OVC025
     FM250600 24015G25KT P6SM OVC035=

USA.gov is the U.S. government's official web portal to all federal, state and local government web resources and services.